createdAt,value
2022-09-12T00:02:14.868Z,10.02
2022-09-12T00:07:17.714Z,9.96
2022-09-12T00:12:20.323Z,9.92
2022-09-12T00:17:23.022Z,9.91
2022-09-12T00:22:25.596Z,9.92
2022-09-12T00:27:28.428Z,9.94
2022-09-12T00:32:31.161Z,9.96
2022-09-12T00:37:34.488Z,9.97
2022-09-12T00:42:37.641Z,9.99
2022-09-12T00:47:40.598Z,10.03
2022-09-12T00:52:49.293Z,10.06
2022-09-12T00:57:57.936Z,10.07
2022-09-12T01:03:02.443Z,10.09
2022-09-12T01:08:05.700Z,10.09
2022-09-12T01:13:09.857Z,10.08
2022-09-12T01:18:19.086Z,10.04
2022-09-12T01:23:40.617Z,10.01
2022-09-12T01:28:55.569Z,9.99
2022-09-12T01:33:58.610Z,9.99
2022-09-12T01:39:03.826Z,9.98
2022-09-12T01:44:09.432Z,9.96
2022-09-12T01:49:23.541Z,9.92
2022-09-12T01:54:31.942Z,9.90
2022-09-12T01:59:39.089Z,9.88
2022-09-12T02:04:44.911Z,9.86
2022-09-12T02:09:51.196Z,9.84
2022-09-12T02:14:57.478Z,9.81
2022-09-12T02:20:07.036Z,9.76
2022-09-12T02:25:12.054Z,9.75
2022-09-12T02:30:16.675Z,9.77
2022-09-12T02:35:25.080Z,9.79
2022-09-12T02:40:28.314Z,9.81
2022-09-12T02:45:34.405Z,9.84
2022-09-12T02:50:37.557Z,9.90
2022-09-12T02:55:42.016Z,9.98
2022-09-12T03:00:51.990Z,10.05
2022-09-12T03:06:02.821Z,10.10
2022-09-12T03:11:24.633Z,10.11
2022-09-12T03:16:31.835Z,10.11
2022-09-12T03:21:45.598Z,10.13
2022-09-12T03:26:50.945Z,10.21
2022-09-12T03:31:58.191Z,10.30
2022-09-12T03:37:01.065Z,10.38
2022-09-12T03:42:03.681Z,10.45
2022-09-12T03:47:11.030Z,10.49
2022-09-12T03:52:13.961Z,10.48
2022-09-12T03:57:16.973Z,10.47
2022-09-12T04:02:19.708Z,10.52
2022-09-12T04:07:22.413Z,10.55
2022-09-12T04:12:25.469Z,10.56
2022-09-12T04:17:28.268Z,10.57
2022-09-12T04:22:32.111Z,10.56
2022-09-12T04:27:34.649Z,10.57
2022-09-12T04:32:38.162Z,10.59
2022-09-12T04:37:40.900Z,10.65
2022-09-12T04:42:43.521Z,10.70
2022-09-12T04:47:46.857Z,10.77
2022-09-12T04:52:50.866Z,10.84
2022-09-12T04:57:53.444Z,10.90
2022-09-12T05:02:55.980Z,10.99
2022-09-12T05:07:58.658Z,11.11
2022-09-12T05:13:01.259Z,11.23
2022-09-12T05:18:03.865Z,11.36
2022-09-12T05:23:06.550Z,11.43
2022-09-12T05:28:09.096Z,11.44
2022-09-12T05:33:11.850Z,11.50
2022-09-12T05:38:14.445Z,11.64
2022-09-12T05:43:17.333Z,11.83
2022-09-12T05:48:19.947Z,12.01
2022-09-12T05:53:22.749Z,12.29
2022-09-12T05:58:25.544Z,12.49
2022-09-12T06:03:28.150Z,12.63
2022-09-12T06:08:31.950Z,12.91
2022-09-12T06:13:37.002Z,13.28
2022-09-12T06:18:40.479Z,13.62
2022-09-12T06:23:44.487Z,13.99
2022-09-12T06:28:47.645Z,14.36
2022-09-12T06:33:52.025Z,14.66
2022-09-12T06:38:57.234Z,14.99
2022-09-12T06:44:00.398Z,15.21
2022-09-12T06:49:03.605Z,15.44
2022-09-12T06:54:06.316Z,15.73
2022-09-12T06:59:09.004Z,16.16
2022-09-12T07:04:12.111Z,16.47
2022-09-12T07:09:17.887Z,16.77
2022-09-12T07:14:20.485Z,17.28
2022-09-12T07:19:24.846Z,17.62
2022-09-12T07:24:27.441Z,17.78
2022-09-12T07:29:37.025Z,17.94
2022-09-12T07:34:40.785Z,18.20
2022-09-12T07:39:43.535Z,18.51
2022-09-12T07:44:46.206Z,18.93
2022-09-12T07:49:48.834Z,18.85
2022-09-12T07:54:51.688Z,18.64
2022-09-12T07:59:54.337Z,18.42
2022-09-12T08:04:57.803Z,18.27
2022-09-12T08:10:00.633Z,18.19
2022-09-12T08:15:03.425Z,18.21
2022-09-12T08:20:06.938Z,18.53
2022-09-12T08:25:10.153Z,19.11
2022-09-12T08:30:13.364Z,19.20
2022-09-12T08:35:16.059Z,18.95
2022-09-12T08:40:19.161Z,18.97
2022-09-12T08:45:27.361Z,19.02
2022-09-12T08:50:30.306Z,18.85
2022-09-12T08:55:46.725Z,18.60
2022-09-12T09:01:02.331Z,18.44
2022-09-12T09:06:07.685Z,18.23
2022-09-12T09:11:39.679Z,18.11
2022-09-12T09:16:43.974Z,18.20
2022-09-12T09:21:59.307Z,18.83
2022-09-12T09:27:14.304Z,19.53
2022-09-12T09:32:28.590Z,20.95
2022-09-12T09:37:38.024Z,24.19
2022-09-12T09:42:44.513Z,24.93
2022-09-12T09:47:49.869Z,24.64
2022-09-12T09:52:52.670Z,23.93
2022-09-12T09:57:55.278Z,23.15
2022-09-12T10:02:59.461Z,22.98
2022-09-12T10:08:04.345Z,22.67
2022-09-12T10:13:10.095Z,22.51
2022-09-12T10:18:32.798Z,22.37
2022-09-12T10:23:37.573Z,22.34
2022-09-12T10:28:46.080Z,22.58
2022-09-12T10:33:53.937Z,22.71
2022-09-12T10:38:57.962Z,22.72
2022-09-12T10:44:15.737Z,22.63
2022-09-12T10:49:24.461Z,22.43
2022-09-12T10:54:28.311Z,22.26
2022-09-12T10:59:34.540Z,22.26
2022-09-12T11:04:56.284Z,22.59
2022-09-12T11:10:11.914Z,22.95
2022-09-12T11:15:29.841Z,23.58
2022-09-12T11:20:39.362Z,24.42
2022-09-12T11:25:48.249Z,27.98
2022-09-12T11:31:10.755Z,32.10
2022-09-12T11:36:32.250Z,33.16
2022-09-12T11:41:36.947Z,32.29
2022-09-12T11:46:40.750Z,34.04
2022-09-12T11:51:59.193Z,31.34
2022-09-12T11:57:04.516Z,27.96
2022-09-12T12:02:12.230Z,25.55
2022-09-12T12:07:15.893Z,24.26
2022-09-12T12:12:21.572Z,24.19
2022-09-12T12:17:25.713Z,25.04
2022-09-12T12:22:28.490Z,24.46
2022-09-12T12:27:50.060Z,23.39
2022-09-12T12:32:52.737Z,22.38
2022-09-12T12:37:55.979Z,21.82
2022-09-12T12:42:58.501Z,22.05
2022-09-12T12:48:08.785Z,25.11
2022-09-12T12:53:28.141Z,28.81
2022-09-12T12:58:34.729Z,29.29
2022-09-12T13:03:38.864Z,27.18
2022-09-12T13:08:45.229Z,25.13
2022-09-12T13:13:53.655Z,23.62
2022-09-12T13:18:57.228Z,22.64
2022-09-12T13:24:04.605Z,22.24
2022-09-12T13:29:10.258Z,23.16
2022-09-12T13:34:18.602Z,26.02
2022-09-12T13:39:26.982Z,28.07
2022-09-12T13:44:31.310Z,29.63
2022-09-12T13:49:35.939Z,30.72
2022-09-12T13:54:39.250Z,30.16
2022-09-12T13:59:42.941Z,27.87
2022-09-12T14:05:06.123Z,26.17
2022-09-12T14:10:14.568Z,24.68
2022-09-12T14:15:19.866Z,23.71
2022-09-12T14:20:23.637Z,22.95
2022-09-12T14:25:29.744Z,22.16
2022-09-12T14:30:36.750Z,21.46
2022-09-12T14:35:57.900Z,21.20
2022-09-12T14:41:02.598Z,22.06
2022-09-12T14:46:07.369Z,22.18
2022-09-12T14:51:19.204Z,21.49
2022-09-12T14:56:23.084Z,21.37
2022-09-12T15:01:26.099Z,22.06
2022-09-12T15:06:30.329Z,22.62
2022-09-12T15:11:34.544Z,23.01
2022-09-12T15:16:37.470Z,23.39
2022-09-12T15:21:40.296Z,23.45
2022-09-12T15:26:42.969Z,23.25
2022-09-12T15:31:47.410Z,22.65
2022-09-12T15:36:49.966Z,22.11
2022-09-12T15:41:52.805Z,21.78
2022-09-12T15:46:55.508Z,21.60
2022-09-12T15:51:59.051Z,21.36
2022-09-12T15:57:01.726Z,21.05
2022-09-12T16:02:04.353Z,20.72
2022-09-12T16:07:06.958Z,20.17
2022-09-12T16:12:09.771Z,19.46
2022-09-12T16:17:12.622Z,18.80
2022-09-12T16:22:15.323Z,18.32
2022-09-12T16:27:18.026Z,17.85
2022-09-12T16:32:21.029Z,17.38
2022-09-12T16:37:23.738Z,16.95
2022-09-12T16:42:26.330Z,16.60
2022-09-12T16:47:32.329Z,16.24
2022-09-12T16:52:35.124Z,15.87
2022-09-12T16:57:38.217Z,15.52
2022-09-12T17:02:40.945Z,15.22
2022-09-12T17:07:43.533Z,14.93
2022-09-12T17:12:46.211Z,14.65
2022-09-12T17:17:49.067Z,14.39
2022-09-12T17:22:51.650Z,14.14
2022-09-12T17:27:54.706Z,13.94
2022-09-12T17:32:57.291Z,13.75
2022-09-12T17:37:59.887Z,13.56
2022-09-12T17:43:03.124Z,13.36
2022-09-12T17:48:11.304Z,13.17
2022-09-12T17:53:14.570Z,13.00
2022-09-12T17:58:17.409Z,12.84
2022-09-12T18:03:23.515Z,12.69
2022-09-12T18:08:26.250Z,12.55
2022-09-12T18:13:28.802Z,12.41
2022-09-12T18:18:31.502Z,12.27
2022-09-12T18:23:35.083Z,12.15
2022-09-12T18:28:39.284Z,12.10
2022-09-12T18:33:42.416Z,12.16
2022-09-12T18:38:45.512Z,12.25
2022-09-12T18:43:48.853Z,12.29
2022-09-12T18:48:51.974Z,12.28
2022-09-12T18:53:56.527Z,12.22
2022-09-12T18:59:00.002Z,12.12
2022-09-12T19:04:05.774Z,12.01
2022-09-12T19:09:09.237Z,11.89
2022-09-12T19:14:11.825Z,11.76
2022-09-12T19:19:14.489Z,11.62
2022-09-12T19:24:17.373Z,11.50
2022-09-12T19:29:20.194Z,11.34
2022-09-12T19:34:23.301Z,11.19
2022-09-12T19:39:25.900Z,11.08
2022-09-12T19:44:29.944Z,11.01
2022-09-12T19:49:32.542Z,10.99
2022-09-12T19:54:35.125Z,11.01
2022-09-12T19:59:38.026Z,11.04
2022-09-12T20:04:40.829Z,11.01
2022-09-12T20:09:43.529Z,10.91
2022-09-12T20:14:46.276Z,10.80
2022-09-12T20:19:48.902Z,10.74
2022-09-12T20:24:51.638Z,10.74
2022-09-12T20:29:54.638Z,10.68
2022-09-12T20:34:57.231Z,10.58
2022-09-12T20:39:59.871Z,10.49
2022-09-12T20:45:02.857Z,10.42
2022-09-12T20:50:05.944Z,10.36
2022-09-12T20:55:09.362Z,10.26
2022-09-12T21:00:12.429Z,10.11
2022-09-12T21:05:15.061Z,9.95
2022-09-12T21:10:19.004Z,9.91
2022-09-12T21:15:21.597Z,9.95
2022-09-12T21:20:24.176Z,9.96
2022-09-12T21:25:27.913Z,9.87
2022-09-12T21:30:30.504Z,9.79
2022-09-12T21:35:36.885Z,9.72
2022-09-12T21:40:39.494Z,9.70
2022-09-12T21:45:42.240Z,9.72
2022-09-12T21:50:49.601Z,9.78
2022-09-12T21:55:52.302Z,9.83
2022-09-12T22:00:55.277Z,9.79
2022-09-12T22:05:59.095Z,9.73
2022-09-12T22:11:03.007Z,9.67
2022-09-12T22:16:07.361Z,9.65
2022-09-12T22:21:12.902Z,9.61
2022-09-12T22:26:15.671Z,9.50
2022-09-12T22:31:18.969Z,9.41
2022-09-12T22:36:21.577Z,9.32
2022-09-12T22:41:24.863Z,9.26
2022-09-12T22:46:27.775Z,9.17
2022-09-12T22:51:31.623Z,9.05
2022-09-12T22:56:34.378Z,8.91
2022-09-12T23:01:37.008Z,8.86
2022-09-12T23:06:39.609Z,8.87
2022-09-12T23:11:42.321Z,8.89
2022-09-12T23:16:44.918Z,8.89
2022-09-12T23:21:47.737Z,8.85
2022-09-12T23:26:50.419Z,8.81
2022-09-12T23:31:53.233Z,8.74
2022-09-12T23:36:56.532Z,8.66
2022-09-12T23:41:59.748Z,8.54
2022-09-12T23:47:03.665Z,8.42
2022-09-12T23:52:06.231Z,8.30
2022-09-12T23:57:09.175Z,8.21
